sensor_id;sensor_type;location;lat;lon;timestamp;temperature;humidity
6654;DHT22;3363;50.942;7.034;2022-12-07T00:01:46;5.30;99.90
6654;DHT22;3363;50.942;7.034;2022-12-07T00:04:15;5.30;99.90
6654;DHT22;3363;50.942;7.034;2022-12-07T00:06:45;5.30;99.90
6654;DHT22;3363;50.942;7.034;2022-12-07T00:09:14;5.30;99.90
6654;DHT22;3363;50.942;7.034;2022-12-07T00:11:42;5.30;99.90
6654;DHT22;3363;50.942;7.034;2022-12-07T00:14:13;5.30;99.90
6654;DHT22;3363;50.942;7.034;2022-12-07T00:16:42;5.30;99.90
6654;DHT22;3363;50.942;7.034;2022-12-07T00:19:10;5.30;99.90
6654;DHT22;3363;50.942;7.034;2022-12-07T00:21:38;5.30;99.90
6654;DHT22;3363;50.942;7.034;2022-12-07T00:24:06;5.30;99.90
6654;DHT22;3363;50.942;7.034;2022-12-07T00:26:34;5.30;99.90
6654;DHT22;3363;50.942;7.034;2022-12-07T00:29:04;5.30;99.90
6654;DHT22;3363;50.942;7.034;2022-12-07T00:31:36;5.30;99.90
6654;DHT22;3363;50.942;7.034;2022-12-07T00:34:05;5.30;99.90
6654;DHT22;3363;50.942;7.034;2022-12-07T00:36:32;5.30;99.90
6654;DHT22;3363;50.942;7.034;2022-12-07T00:39:00;5.20;99.90
6654;DHT22;3363;50.942;7.034;2022-12-07T00:41:29;5.30;99.90
6654;DHT22;3363;50.942;7.034;2022-12-07T00:43:56;5.30;99.90
6654;DHT22;3363;50.942;7.034;2022-12-07T00:46:24;5.30;99.90
6654;DHT22;3363;50.942;7.034;2022-12-07T00:48:53;5.30;99.90
6654;DHT22;3363;50.942;7.034;2022-12-07T00:51:22;5.30;99.90
6654;DHT22;3363;50.942;7.034;2022-12-07T00:53:50;5.30;99.90
6654;DHT22;3363;50.942;7.034;2022-12-07T00:56:18;5.30;99.90
6654;DHT22;3363;50.942;7.034;2022-12-07T00:58:50;5.30;99.90
6654;DHT22;3363;50.942;7.034;2022-12-07T01:01:17;5.30;99.90
6654;DHT22;3363;50.942;7.034;2022-12-07T01:03:44;5.20;99.90
6654;DHT22;3363;50.942;7.034;2022-12-07T01:06:15;5.30;99.90
6654;DHT22;3363;50.942;7.034;2022-12-07T01:08:43;5.30;99.90
6654;DHT22;3363;50.942;7.034;2022-12-07T01:11:13;5.30;99.90
6654;DHT22;3363;50.942;7.034;2022-12-07T01:13:41;5.30;99.90
6654;DHT22;3363;50.942;7.034;2022-12-07T01:16:10;5.30;99.90
6654;DHT22;3363;50.942;7.034;2022-12-07T01:18:38;5.30;99.90
6654;DHT22;3363;50.942;7.034;2022-12-07T01:21:07;5.30;99.90
6654;DHT22;3363;50.942;7.034;2022-12-07T01:23:37;5.30;99.90
6654;DHT22;3363;50.942;7.034;2022-12-07T01:26:07;5.30;99.90
6654;DHT22;3363;50.942;7.034;2022-12-07T01:28:36;5.30;99.90
6654;DHT22;3363;50.942;7.034;2022-12-07T01:31:06;5.30;99.90
6654;DHT22;3363;50.942;7.034;2022-12-07T01:33:37;5.30;99.90
6654;DHT22;3363;50.942;7.034;2022-12-07T01:36:05;5.30;99.90
6654;DHT22;3363;50.942;7.034;2022-12-07T01:38:34;5.30;99.90
6654;DHT22;3363;50.942;7.034;2022-12-07T01:41:02;5.30;99.90
6654;DHT22;3363;50.942;7.034;2022-12-07T01:43:32;5.30;99.90
6654;DHT22;3363;50.942;7.034;2022-12-07T01:46:00;5.30;99.90
6654;DHT22;3363;50.942;7.034;2022-12-07T01:48:31;5.30;99.90
6654;DHT22;3363;50.942;7.034;2022-12-07T01:51:02;5.30;99.90
6654;DHT22;3363;50.942;7.034;2022-12-07T01:53:32;5.30;99.90
6654;DHT22;3363;50.942;7.034;2022-12-07T01:56:03;5.30;99.90
6654;DHT22;3363;50.942;7.034;2022-12-07T01:58:30;5.30;99.90
6654;DHT22;3363;50.942;7.034;2022-12-07T02:00:58;5.30;99.90
6654;DHT22;3363;50.942;7.034;2022-12-07T02:03:29;5.30;99.90
6654;DHT22;3363;50.942;7.034;2022-12-07T02:05:59;5.30;99.90
6654;DHT22;3363;50.942;7.034;2022-12-07T02:08:27;5.30;99.90
6654;DHT22;3363;50.942;7.034;2022-12-07T02:10:54;5.30;99.90
6654;DHT22;3363;50.942;7.034;2022-12-07T02:13:25;5.30;99.90
6654;DHT22;3363;50.942;7.034;2022-12-07T02:16:13;5.30;99.90
6654;DHT22;3363;50.942;7.034;2022-12-07T02:19:09;5.30;99.90
6654;DHT22;3363;50.942;7.034;2022-12-07T02:21:55;5.30;99.90
6654;DHT22;3363;50.942;7.034;2022-12-07T02:24:36;5.30;99.90
6654;DHT22;3363;50.942;7.034;2022-12-07T02:27:33;5.30;99.90
6654;DHT22;3363;50.942;7.034;2022-12-07T02:30:06;5.30;99.90
6654;DHT22;3363;50.942;7.034;2022-12-07T02:32:42;5.30;99.90
6654;DHT22;3363;50.942;7.034;2022-12-07T02:35:15;5.30;99.90
6654;DHT22;3363;50.942;7.034;2022-12-07T02:37:55;5.30;99.90
6654;DHT22;3363;50.942;7.034;2022-12-07T02:40:29;5.30;99.90
6654;DHT22;3363;50.942;7.034;2022-12-07T02:43:03;5.30;99.90
6654;DHT22;3363;50.942;7.034;2022-12-07T02:45:34;5.30;99.90
6654;DHT22;3363;50.942;7.034;2022-12-07T02:48:04;5.30;99.90
6654;DHT22;3363;50.942;7.034;2022-12-07T02:50:32;5.30;99.90
6654;DHT22;3363;50.942;7.034;2022-12-07T02:52:59;5.30;99.90
6654;DHT22;3363;50.942;7.034;2022-12-07T02:55:30;5.30;99.90
6654;DHT22;3363;50.942;7.034;2022-12-07T02:58:16;5.30;99.90
6654;DHT22;3363;50.942;7.034;2022-12-07T03:00:54;5.30;99.90
6654;DHT22;3363;50.942;7.034;2022-12-07T03:03:28;5.30;99.90
6654;DHT22;3363;50.942;7.034;2022-12-07T03:06:09;5.30;99.90
6654;DHT22;3363;50.942;7.034;2022-12-07T03:08:47;5.30;99.90
6654;DHT22;3363;50.942;7.034;2022-12-07T03:11:25;5.30;99.90
6654;DHT22;3363;50.942;7.034;2022-12-07T03:13:59;5.30;99.90
6654;DHT22;3363;50.942;7.034;2022-12-07T03:16:33;5.30;99.90
6654;DHT22;3363;50.942;7.034;2022-12-07T03:19:04;5.30;99.90
6654;DHT22;3363;50.942;7.034;2022-12-07T03:21:38;5.30;99.90
6654;DHT22;3363;50.942;7.034;2022-12-07T03:24:09;5.30;99.90
6654;DHT22;3363;50.942;7.034;2022-12-07T03:26:41;5.30;99.90
6654;DHT22;3363;50.942;7.034;2022-12-07T03:29:16;5.30;99.90
6654;DHT22;3363;50.942;7.034;2022-12-07T03:31:47;5.30;99.90
6654;DHT22;3363;50.942;7.034;2022-12-07T03:34:21;5.30;99.90
6654;DHT22;3363;50.942;7.034;2022-12-07T03:36:56;5.30;99.90
6654;DHT22;3363;50.942;7.034;2022-12-07T03:39:28;5.30;99.90
6654;DHT22;3363;50.942;7.034;2022-12-07T03:41:59;5.30;99.90
6654;DHT22;3363;50.942;7.034;2022-12-07T03:44:27;5.30;99.90
6654;DHT22;3363;50.942;7.034;2022-12-07T03:47:01;5.30;99.90
6654;DHT22;3363;50.942;7.034;2022-12-07T03:49:32;5.30;99.90
6654;DHT22;3363;50.942;7.034;2022-12-07T03:52:12;5.30;99.90
6654;DHT22;3363;50.942;7.034;2022-12-07T03:54:48;5.30;99.90
6654;DHT22;3363;50.942;7.034;2022-12-07T03:57:19;5.30;99.90
6654;DHT22;3363;50.942;7.034;2022-12-07T03:59:47;5.30;99.90
6654;DHT22;3363;50.942;7.034;2022-12-07T04:02:16;5.30;99.90
6654;DHT22;3363;50.942;7.034;2022-12-07T04:04:43;5.30;99.90
6654;DHT22;3363;50.942;7.034;2022-12-07T04:07:10;5.30;99.90
6654;DHT22;3363;50.942;7.034;2022-12-07T04:09:38;5.30;99.90
6654;DHT22;3363;50.942;7.034;2022-12-07T04:12:06;5.30;99.90
6654;DHT22;3363;50.942;7.034;2022-12-07T04:14:33;5.30;99.90
6654;DHT22;3363;50.942;7.034;2022-12-07T04:17:00;5.30;99.90
6654;DHT22;3363;50.942;7.034;2022-12-07T04:19:30;5.30;99.90
6654;DHT22;3363;50.942;7.034;2022-12-07T04:22:00;5.30;99.90
6654;DHT22;3363;50.942;7.034;2022-12-07T04:24:28;5.30;99.90
6654;DHT22;3363;50.942;7.034;2022-12-07T04:26:55;5.30;99.90
6654;DHT22;3363;50.942;7.034;2022-12-07T04:29:22;5.30;99.90
6654;DHT22;3363;50.942;7.034;2022-12-07T04:31:50;5.30;99.90
6654;DHT22;3363;50.942;7.034;2022-12-07T04:34:18;5.30;99.90
6654;DHT22;3363;50.942;7.034;2022-12-07T04:36:47;5.30;99.90
6654;DHT22;3363;50.942;7.034;2022-12-07T04:39:19;5.30;99.90
6654;DHT22;3363;50.942;7.034;2022-12-07T04:41:48;5.30;99.90
6654;DHT22;3363;50.942;7.034;2022-12-07T04:44:15;5.30;99.90
6654;DHT22;3363;50.942;7.034;2022-12-07T04:46:43;5.30;99.90
6654;DHT22;3363;50.942;7.034;2022-12-07T04:49:10;5.30;99.90
6654;DHT22;3363;50.942;7.034;2022-12-07T04:51:38;5.30;99.90
6654;DHT22;3363;50.942;7.034;2022-12-07T04:54:06;5.30;99.90
6654;DHT22;3363;50.942;7.034;2022-12-07T04:56:33;5.30;99.90
6654;DHT22;3363;50.942;7.034;2022-12-07T04:59:01;5.30;99.90
6654;DHT22;3363;50.942;7.034;2022-12-07T05:01:29;5.30;99.90
6654;DHT22;3363;50.942;7.034;2022-12-07T05:03:56;5.30;99.90
6654;DHT22;3363;50.942;7.034;2022-12-07T05:06:24;5.30;99.90
6654;DHT22;3363;50.942;7.034;2022-12-07T05:08:51;5.30;99.90
6654;DHT22;3363;50.942;7.034;2022-12-07T05:11:19;5.30;99.90
6654;DHT22;3363;50.942;7.034;2022-12-07T05:14:07;5.30;99.90
6654;DHT22;3363;50.942;7.034;2022-12-07T05:16:35;5.30;99.90
6654;DHT22;3363;50.942;7.034;2022-12-07T05:19:03;5.30;99.90
6654;DHT22;3363;50.942;7.034;2022-12-07T05:21:31;5.30;99.90
6654;DHT22;3363;50.942;7.034;2022-12-07T05:23:58;5.30;99.90
6654;DHT22;3363;50.942;7.034;2022-12-07T05:26:26;5.30;99.90
6654;DHT22;3363;50.942;7.034;2022-12-07T05:28:55;5.30;99.90
6654;DHT22;3363;50.942;7.034;2022-12-07T05:31:24;5.30;99.90
6654;DHT22;3363;50.942;7.034;2022-12-07T05:33:52;5.30;99.90
6654;DHT22;3363;50.942;7.034;2022-12-07T05:36:19;5.30;99.90
6654;DHT22;3363;50.942;7.034;2022-12-07T05:38:46;5.30;99.90
6654;DHT22;3363;50.942;7.034;2022-12-07T05:41:15;5.30;99.90
6654;DHT22;3363;50.942;7.034;2022-12-07T05:44:11;5.30;99.90
6654;DHT22;3363;50.942;7.034;2022-12-07T05:46:38;5.30;99.90
6654;DHT22;3363;50.942;7.034;2022-12-07T05:49:05;5.30;99.90
6654;DHT22;3363;50.942;7.034;2022-12-07T05:51:32;5.30;99.90
6654;DHT22;3363;50.942;7.034;2022-12-07T05:53:59;5.30;99.90
6654;DHT22;3363;50.942;7.034;2022-12-07T05:56:26;5.30;99.90
6654;DHT22;3363;50.942;7.034;2022-12-07T05:58:53;5.30;99.90
6654;DHT22;3363;50.942;7.034;2022-12-07T06:01:38;5.30;99.90
6654;DHT22;3363;50.942;7.034;2022-12-07T06:04:05;5.30;99.90
6654;DHT22;3363;50.942;7.034;2022-12-07T06:06:33;5.30;99.90
6654;DHT22;3363;50.942;7.034;2022-12-07T06:09:00;5.20;99.90
6654;DHT22;3363;50.942;7.034;2022-12-07T06:11:27;5.20;99.90
6654;DHT22;3363;50.942;7.034;2022-12-07T06:14:11;5.20;99.90
6654;DHT22;3363;50.942;7.034;2022-12-07T06:16:40;5.20;99.90
6654;DHT22;3363;50.942;7.034;2022-12-07T06:19:07;5.20;99.90
6654;DHT22;3363;50.942;7.034;2022-12-07T06:21:34;5.20;99.90
6654;DHT22;3363;50.942;7.034;2022-12-07T06:24:02;5.20;99.90
6654;DHT22;3363;50.942;7.034;2022-12-07T06:26:30;5.20;99.90
6654;DHT22;3363;50.942;7.034;2022-12-07T06:28:57;5.20;99.90
6654;DHT22;3363;50.942;7.034;2022-12-07T06:31:24;5.10;99.90
6654;DHT22;3363;50.942;7.034;2022-12-07T06:33:57;5.20;99.90
6654;DHT22;3363;50.942;7.034;2022-12-07T06:36:24;5.10;99.90
6654;DHT22;3363;50.942;7.034;2022-12-07T06:38:52;5.10;99.90
6654;DHT22;3363;50.942;7.034;2022-12-07T06:41:19;5.10;99.90
6654;DHT22;3363;50.942;7.034;2022-12-07T06:43:46;5.10;99.90
6654;DHT22;3363;50.942;7.034;2022-12-07T06:46:13;5.10;99.90
6654;DHT22;3363;50.942;7.034;2022-12-07T06:48:40;5.10;99.90
6654;DHT22;3363;50.942;7.034;2022-12-07T06:51:09;5.10;99.90
6654;DHT22;3363;50.942;7.034;2022-12-07T06:53:36;5.10;99.90
6654;DHT22;3363;50.942;7.034;2022-12-07T06:56:04;5.10;99.90
6654;DHT22;3363;50.942;7.034;2022-12-07T06:58:31;5.10;99.90
6654;DHT22;3363;50.942;7.034;2022-12-07T07:00:58;5.10;99.90
6654;DHT22;3363;50.942;7.034;2022-12-07T07:03:25;5.20;99.90
6654;DHT22;3363;50.942;7.034;2022-12-07T07:05:52;5.20;99.90
6654;DHT22;3363;50.942;7.034;2022-12-07T07:08:21;5.20;99.90
6654;DHT22;3363;50.942;7.034;2022-12-07T07:10:48;5.20;99.90
6654;DHT22;3363;50.942;7.034;2022-12-07T07:13:15;5.20;99.90
6654;DHT22;3363;50.942;7.034;2022-12-07T07:15:42;5.20;99.90
6654;DHT22;3363;50.942;7.034;2022-12-07T07:18:09;5.10;99.90
6654;DHT22;3363;50.942;7.034;2022-12-07T07:20:36;5.10;99.90
6654;DHT22;3363;50.942;7.034;2022-12-07T07:23:03;5.10;99.90
6654;DHT22;3363;50.942;7.034;2022-12-07T07:25:32;5.10;99.90
6654;DHT22;3363;50.942;7.034;2022-12-07T07:27:59;5.20;99.90
6654;DHT22;3363;50.942;7.034;2022-12-07T07:30:26;5.20;99.90
6654;DHT22;3363;50.942;7.034;2022-12-07T07:32:56;5.20;99.90
6654;DHT22;3363;50.942;7.034;2022-12-07T07:35:23;5.10;99.90
6654;DHT22;3363;50.942;7.034;2022-12-07T07:37:50;5.20;99.90
6654;DHT22;3363;50.942;7.034;2022-12-07T07:40:18;5.20;99.90
6654;DHT22;3363;50.942;7.034;2022-12-07T07:42:48;5.10;99.90
6654;DHT22;3363;50.942;7.034;2022-12-07T07:45:16;5.10;99.90
6654;DHT22;3363;50.942;7.034;2022-12-07T07:47:43;5.10;99.90
6654;DHT22;3363;50.942;7.034;2022-12-07T07:50:10;5.20;99.90
6654;DHT22;3363;50.942;7.034;2022-12-07T07:52:38;5.20;99.90
6654;DHT22;3363;50.942;7.034;2022-12-07T07:55:06;5.20;99.90
6654;DHT22;3363;50.942;7.034;2022-12-07T07:57:34;5.20;99.90
6654;DHT22;3363;50.942;7.034;2022-12-07T08:00:04;5.30;99.90
6654;DHT22;3363;50.942;7.034;2022-12-07T08:02:32;5.30;99.90
6654;DHT22;3363;50.942;7.034;2022-12-07T08:04:59;5.30;99.90
6654;DHT22;3363;50.942;7.034;2022-12-07T08:07:27;5.30;99.90
6654;DHT22;3363;50.942;7.034;2022-12-07T08:09:54;5.30;99.90
6654;DHT22;3363;50.942;7.034;2022-12-07T08:12:21;5.20;99.90
6654;DHT22;3363;50.942;7.034;2022-12-07T08:14:48;5.20;99.90
6654;DHT22;3363;50.942;7.034;2022-12-07T08:17:17;5.20;99.90
6654;DHT22;3363;50.942;7.034;2022-12-07T08:19:44;5.20;99.90
6654;DHT22;3363;50.942;7.034;2022-12-07T08:22:11;5.20;99.90
6654;DHT22;3363;50.942;7.034;2022-12-07T08:24:37;5.20;99.90
6654;DHT22;3363;50.942;7.034;2022-12-07T08:27:04;5.20;99.90
6654;DHT22;3363;50.942;7.034;2022-12-07T08:29:32;5.30;99.90
6654;DHT22;3363;50.942;7.034;2022-12-07T08:31:59;5.30;99.90
6654;DHT22;3363;50.942;7.034;2022-12-07T08:34:28;5.20;99.90
6654;DHT22;3363;50.942;7.034;2022-12-07T08:36:55;5.20;99.90
6654;DHT22;3363;50.942;7.034;2022-12-07T08:39:22;5.30;99.90
6654;DHT22;3363;50.942;7.034;2022-12-07T08:41:49;5.30;99.90
6654;DHT22;3363;50.942;7.034;2022-12-07T08:44:16;5.30;99.90
6654;DHT22;3363;50.942;7.034;2022-12-07T08:46:46;5.30;99.90
6654;DHT22;3363;50.942;7.034;2022-12-07T08:49:17;5.30;99.90
6654;DHT22;3363;50.942;7.034;2022-12-07T08:51:48;5.30;99.90
6654;DHT22;3363;50.942;7.034;2022-12-07T08:54:16;5.30;99.90
6654;DHT22;3363;50.942;7.034;2022-12-07T08:56:44;5.30;99.90
6654;DHT22;3363;50.942;7.034;2022-12-07T08:59:13;5.40;99.90
6654;DHT22;3363;50.942;7.034;2022-12-07T09:01:41;5.40;99.90
6654;DHT22;3363;50.942;7.034;2022-12-07T09:04:08;5.40;99.90
6654;DHT22;3363;50.942;7.034;2022-12-07T09:06:36;5.40;99.90
6654;DHT22;3363;50.942;7.034;2022-12-07T09:09:06;5.40;99.90
6654;DHT22;3363;50.942;7.034;2022-12-07T09:11:34;5.40;99.90
6654;DHT22;3363;50.942;7.034;2022-12-07T09:14:01;5.40;99.90
6654;DHT22;3363;50.942;7.034;2022-12-07T09:16:28;5.40;99.90
6654;DHT22;3363;50.942;7.034;2022-12-07T09:18:55;5.40;99.90
6654;DHT22;3363;50.942;7.034;2022-12-07T09:21:22;5.40;99.90
6654;DHT22;3363;50.942;7.034;2022-12-07T09:23:49;5.40;99.90
6654;DHT22;3363;50.942;7.034;2022-12-07T09:26:17;5.40;99.90
6654;DHT22;3363;50.942;7.034;2022-12-07T09:28:44;5.40;99.90
6654;DHT22;3363;50.942;7.034;2022-12-07T09:31:11;5.40;99.90
6654;DHT22;3363;50.942;7.034;2022-12-07T09:33:38;5.50;99.90
6654;DHT22;3363;50.942;7.034;2022-12-07T09:36:07;5.50;99.90
6654;DHT22;3363;50.942;7.034;2022-12-07T09:38:35;5.50;99.90
6654;DHT22;3363;50.942;7.034;2022-12-07T09:41:05;5.50;99.90
6654;DHT22;3363;50.942;7.034;2022-12-07T09:43:35;5.50;99.90
6654;DHT22;3363;50.942;7.034;2022-12-07T09:46:03;5.50;99.90
6654;DHT22;3363;50.942;7.034;2022-12-07T09:48:32;5.50;99.90
6654;DHT22;3363;50.942;7.034;2022-12-07T09:51:02;5.50;99.90
6654;DHT22;3363;50.942;7.034;2022-12-07T09:53:37;5.50;99.90
6654;DHT22;3363;50.942;7.034;2022-12-07T09:56:05;5.50;99.90
6654;DHT22;3363;50.942;7.034;2022-12-07T09:58:34;5.60;99.90
6654;DHT22;3363;50.942;7.034;2022-12-07T10:01:09;5.60;99.90
6654;DHT22;3363;50.942;7.034;2022-12-07T10:03:40;5.60;99.90
6654;DHT22;3363;50.942;7.034;2022-12-07T10:06:11;5.60;99.90
6654;DHT22;3363;50.942;7.034;2022-12-07T10:08:40;5.70;99.90
6654;DHT22;3363;50.942;7.034;2022-12-07T10:11:09;5.70;99.90
6654;DHT22;3363;50.942;7.034;2022-12-07T10:13:40;5.70;99.90
6654;DHT22;3363;50.942;7.034;2022-12-07T10:16:32;5.80;99.90
6654;DHT22;3363;50.942;7.034;2022-12-07T10:19:23;5.70;99.90
6654;DHT22;3363;50.942;7.034;2022-12-07T10:22:10;5.70;99.90
6654;DHT22;3363;50.942;7.034;2022-12-07T10:24:39;5.70;99.90
6654;DHT22;3363;50.942;7.034;2022-12-07T10:27:18;5.70;99.90
6654;DHT22;3363;50.942;7.034;2022-12-07T10:29:51;5.70;99.90
6654;DHT22;3363;50.942;7.034;2022-12-07T10:32:31;5.70;99.90
6654;DHT22;3363;50.942;7.034;2022-12-07T10:35:19;5.70;99.90
6654;DHT22;3363;50.942;7.034;2022-12-07T10:37:51;5.70;99.90
6654;DHT22;3363;50.942;7.034;2022-12-07T10:40:28;5.70;99.90
6654;DHT22;3363;50.942;7.034;2022-12-07T10:43:17;5.80;99.90
6654;DHT22;3363;50.942;7.034;2022-12-07T10:46:29;5.80;99.90
6654;DHT22;3363;50.942;7.034;2022-12-07T10:52:30;5.80;99.90
6654;DHT22;3363;50.942;7.034;2022-12-07T10:55:15;5.80;99.90
6654;DHT22;3363;50.942;7.034;2022-12-07T10:57:56;5.80;99.90
6654;DHT22;3363;50.942;7.034;2022-12-07T11:00:39;5.80;99.90
6654;DHT22;3363;50.942;7.034;2022-12-07T11:03:26;5.80;99.90
6654;DHT22;3363;50.942;7.034;2022-12-07T11:06:22;5.80;99.90
6654;DHT22;3363;50.942;7.034;2022-12-07T11:09:03;5.80;99.90
6654;DHT22;3363;50.942;7.034;2022-12-07T11:11:45;5.90;99.90
6654;DHT22;3363;50.942;7.034;2022-12-07T11:14:22;5.80;99.90
6654;DHT22;3363;50.942;7.034;2022-12-07T11:16:56;5.90;99.90
6654;DHT22;3363;50.942;7.034;2022-12-07T11:19:34;5.90;99.90
6654;DHT22;3363;50.942;7.034;2022-12-07T11:22:20;5.90;99.90
6654;DHT22;3363;50.942;7.034;2022-12-07T11:24:57;5.90;99.90
6654;DHT22;3363;50.942;7.034;2022-12-07T11:27:34;5.90;99.90
6654;DHT22;3363;50.942;7.034;2022-12-07T11:30:15;6.00;99.90
6654;DHT22;3363;50.942;7.034;2022-12-07T11:33:13;6.00;99.90
6654;DHT22;3363;50.942;7.034;2022-12-07T11:35:54;6.00;99.90
6654;DHT22;3363;50.942;7.034;2022-12-07T11:38:35;6.00;99.90
6654;DHT22;3363;50.942;7.034;2022-12-07T11:41:10;6.00;99.90
6654;DHT22;3363;50.942;7.034;2022-12-07T11:43:52;6.10;99.90
6654;DHT22;3363;50.942;7.034;2022-12-07T11:46:25;6.10;99.90
6654;DHT22;3363;50.942;7.034;2022-12-07T11:49:01;6.10;99.90
6654;DHT22;3363;50.942;7.034;2022-12-07T11:51:34;6.20;99.90
6654;DHT22;3363;50.942;7.034;2022-12-07T11:54:05;6.30;99.90
6654;DHT22;3363;50.942;7.034;2022-12-07T11:56:38;6.30;99.90
6654;DHT22;3363;50.942;7.034;2022-12-07T11:59:11;6.30;99.90
6654;DHT22;3363;50.942;7.034;2022-12-07T12:01:50;6.30;99.90
6654;DHT22;3363;50.942;7.034;2022-12-07T12:04:28;6.30;99.90
6654;DHT22;3363;50.942;7.034;2022-12-07T12:07:01;6.20;99.90
6654;DHT22;3363;50.942;7.034;2022-12-07T12:09:32;6.20;99.90
6654;DHT22;3363;50.942;7.034;2022-12-07T12:12:19;6.20;99.90
6654;DHT22;3363;50.942;7.034;2022-12-07T12:15:02;6.20;99.90
6654;DHT22;3363;50.942;7.034;2022-12-07T12:20:42;6.20;99.90
6654;DHT22;3363;50.942;7.034;2022-12-07T12:23:14;6.20;99.90
6654;DHT22;3363;50.942;7.034;2022-12-07T12:25:45;6.20;99.90
6654;DHT22;3363;50.942;7.034;2022-12-07T12:28:23;6.20;99.90
6654;DHT22;3363;50.942;7.034;2022-12-07T12:31:06;6.20;99.90
6654;DHT22;3363;50.942;7.034;2022-12-07T12:33:35;6.20;99.90
6654;DHT22;3363;50.942;7.034;2022-12-07T12:36:24;6.30;99.90
6654;DHT22;3363;50.942;7.034;2022-12-07T12:39:09;6.30;99.90
6654;DHT22;3363;50.942;7.034;2022-12-07T12:41:53;6.30;99.90
6654;DHT22;3363;50.942;7.034;2022-12-07T12:45:05;6.30;99.90
6654;DHT22;3363;50.942;7.034;2022-12-07T12:47:56;6.20;99.90
6654;DHT22;3363;50.942;7.034;2022-12-07T12:50:32;6.20;99.90
6654;DHT22;3363;50.942;7.034;2022-12-07T12:53:15;6.20;99.90
6654;DHT22;3363;50.942;7.034;2022-12-07T12:59:24;6.10;99.90
6654;DHT22;3363;50.942;7.034;2022-12-07T13:01:55;6.10;99.90
6654;DHT22;3363;50.942;7.034;2022-12-07T13:04:39;6.20;99.90
6654;DHT22;3363;50.942;7.034;2022-12-07T13:10:25;6.20;99.90
6654;DHT22;3363;50.942;7.034;2022-12-07T13:13:02;6.20;99.90
6654;DHT22;3363;50.942;7.034;2022-12-07T13:15:33;6.20;99.90
6654;DHT22;3363;50.942;7.034;2022-12-07T13:18:04;6.20;99.90
6654;DHT22;3363;50.942;7.034;2022-12-07T13:20:53;6.20;99.90
6654;DHT22;3363;50.942;7.034;2022-12-07T13:23:25;6.20;99.90
6654;DHT22;3363;50.942;7.034;2022-12-07T13:26:09;6.20;99.90
6654;DHT22;3363;50.942;7.034;2022-12-07T13:28:43;6.20;99.90
6654;DHT22;3363;50.942;7.034;2022-12-07T13:31:20;6.20;99.90
6654;DHT22;3363;50.942;7.034;2022-12-07T13:33:57;6.20;99.90
6654;DHT22;3363;50.942;7.034;2022-12-07T13:36:27;6.20;99.90
6654;DHT22;3363;50.942;7.034;2022-12-07T13:38:58;6.20;99.90
6654;DHT22;3363;50.942;7.034;2022-12-07T13:41:26;6.20;99.90
6654;DHT22;3363;50.942;7.034;2022-12-07T13:44:00;6.20;99.90
6654;DHT22;3363;50.942;7.034;2022-12-07T13:46:37;6.20;99.90
6654;DHT22;3363;50.942;7.034;2022-12-07T13:49:19;6.20;99.90
6654;DHT22;3363;50.942;7.034;2022-12-07T13:51:48;6.20;99.90
6654;DHT22;3363;50.942;7.034;2022-12-07T13:54:16;6.20;99.90
6654;DHT22;3363;50.942;7.034;2022-12-07T13:56:46;6.20;99.90
6654;DHT22;3363;50.942;7.034;2022-12-07T13:59:17;6.20;99.90
6654;DHT22;3363;50.942;7.034;2022-12-07T14:01:47;6.20;99.90
6654;DHT22;3363;50.942;7.034;2022-12-07T14:04:25;6.20;99.90
6654;DHT22;3363;50.942;7.034;2022-12-07T14:06:57;6.20;99.90
6654;DHT22;3363;50.942;7.034;2022-12-07T14:09:25;6.20;99.90
6654;DHT22;3363;50.942;7.034;2022-12-07T14:11:55;6.20;99.90
6654;DHT22;3363;50.942;7.034;2022-12-07T14:14:26;6.20;99.90
6654;DHT22;3363;50.942;7.034;2022-12-07T14:17:00;6.20;99.90
6654;DHT22;3363;50.942;7.034;2022-12-07T14:19:42;6.20;99.90
6654;DHT22;3363;50.942;7.034;2022-12-07T14:22:24;6.20;99.90
6654;DHT22;3363;50.942;7.034;2022-12-07T14:24:59;6.20;99.90
6654;DHT22;3363;50.942;7.034;2022-12-07T14:27:31;6.20;99.90
6654;DHT22;3363;50.942;7.034;2022-12-07T14:30:02;6.20;99.90
6654;DHT22;3363;50.942;7.034;2022-12-07T14:32:30;6.10;99.90
6654;DHT22;3363;50.942;7.034;2022-12-07T14:35:00;6.10;99.90
6654;DHT22;3363;50.942;7.034;2022-12-07T14:37:29;6.10;99.90
6654;DHT22;3363;50.942;7.034;2022-12-07T14:39:57;6.20;99.90
6654;DHT22;3363;50.942;7.034;2022-12-07T14:42:27;6.10;99.90
6654;DHT22;3363;50.942;7.034;2022-12-07T14:44:55;6.10;99.90
6654;DHT22;3363;50.942;7.034;2022-12-07T14:47:24;6.10;99.90
6654;DHT22;3363;50.942;7.034;2022-12-07T14:49:52;6.10;99.90
6654;DHT22;3363;50.942;7.034;2022-12-07T14:52:21;6.10;99.90
6654;DHT22;3363;50.942;7.034;2022-12-07T14:54:50;6.10;99.90
6654;DHT22;3363;50.942;7.034;2022-12-07T14:57:17;6.10;99.90
6654;DHT22;3363;50.942;7.034;2022-12-07T14:59:44;6.10;99.90
6654;DHT22;3363;50.942;7.034;2022-12-07T15:02:14;6.10;99.90
6654;DHT22;3363;50.942;7.034;2022-12-07T15:04:43;6.10;99.90
6654;DHT22;3363;50.942;7.034;2022-12-07T15:07:15;6.10;99.90
6654;DHT22;3363;50.942;7.034;2022-12-07T15:09:45;6.10;99.90
6654;DHT22;3363;50.942;7.034;2022-12-07T15:12:12;6.10;99.90
6654;DHT22;3363;50.942;7.034;2022-12-07T15:14:39;6.10;99.90
6654;DHT22;3363;50.942;7.034;2022-12-07T15:17:07;6.10;99.90
6654;DHT22;3363;50.942;7.034;2022-12-07T15:19:36;6.10;99.90
6654;DHT22;3363;50.942;7.034;2022-12-07T15:22:04;6.10;99.90
6654;DHT22;3363;50.942;7.034;2022-12-07T15:24:31;6.10;99.90
6654;DHT22;3363;50.942;7.034;2022-12-07T15:27:00;6.10;99.90
6654;DHT22;3363;50.942;7.034;2022-12-07T15:29:27;6.10;99.90
6654;DHT22;3363;50.942;7.034;2022-12-07T15:31:54;6.10;99.90
6654;DHT22;3363;50.942;7.034;2022-12-07T15:34:21;6.10;99.90
6654;DHT22;3363;50.942;7.034;2022-12-07T15:36:48;6.10;99.90
6654;DHT22;3363;50.942;7.034;2022-12-07T15:39:16;6.10;99.90
6654;DHT22;3363;50.942;7.034;2022-12-07T15:41:43;6.10;99.90
6654;DHT22;3363;50.942;7.034;2022-12-07T15:44:12;6.00;99.90
6654;DHT22;3363;50.942;7.034;2022-12-07T15:46:57;6.00;99.90
6654;DHT22;3363;50.942;7.034;2022-12-07T15:49:24;5.90;99.90
6654;DHT22;3363;50.942;7.034;2022-12-07T15:51:51;5.90;99.90
6654;DHT22;3363;50.942;7.034;2022-12-07T15:54:21;5.90;99.90
6654;DHT22;3363;50.942;7.034;2022-12-07T15:56:49;5.90;99.90
6654;DHT22;3363;50.942;7.034;2022-12-07T15:59:16;5.90;99.90
6654;DHT22;3363;50.942;7.034;2022-12-07T16:01:43;5.90;99.90
6654;DHT22;3363;50.942;7.034;2022-12-07T16:04:11;5.80;99.90
6654;DHT22;3363;50.942;7.034;2022-12-07T16:06:38;5.70;99.90
6654;DHT22;3363;50.942;7.034;2022-12-07T16:09:06;5.70;99.90
6654;DHT22;3363;50.942;7.034;2022-12-07T16:11:34;5.80;99.90
6654;DHT22;3363;50.942;7.034;2022-12-07T16:14:01;5.80;99.90
6654;DHT22;3363;50.942;7.034;2022-12-07T16:16:28;5.80;99.90
6654;DHT22;3363;50.942;7.034;2022-12-07T16:18:56;5.80;99.90
6654;DHT22;3363;50.942;7.034;2022-12-07T16:21:23;5.70;99.90
6654;DHT22;3363;50.942;7.034;2022-12-07T16:23:50;5.70;99.90
6654;DHT22;3363;50.942;7.034;2022-12-07T16:26:19;5.70;99.90
6654;DHT22;3363;50.942;7.034;2022-12-07T16:28:51;5.70;99.90
6654;DHT22;3363;50.942;7.034;2022-12-07T16:31:21;5.80;99.90
6654;DHT22;3363;50.942;7.034;2022-12-07T16:33:51;5.80;99.90
6654;DHT22;3363;50.942;7.034;2022-12-07T16:36:19;5.80;99.90
6654;DHT22;3363;50.942;7.034;2022-12-07T16:38:47;5.80;99.90
6654;DHT22;3363;50.942;7.034;2022-12-07T16:41:14;5.80;99.90
6654;DHT22;3363;50.942;7.034;2022-12-07T16:43:41;5.80;99.90
6654;DHT22;3363;50.942;7.034;2022-12-07T16:46:10;5.70;99.90
6654;DHT22;3363;50.942;7.034;2022-12-07T16:48:38;5.70;99.90
6654;DHT22;3363;50.942;7.034;2022-12-07T16:51:07;5.70;99.90
6654;DHT22;3363;50.942;7.034;2022-12-07T16:53:36;5.60;99.90
6654;DHT22;3363;50.942;7.034;2022-12-07T16:56:08;5.70;99.90
6654;DHT22;3363;50.942;7.034;2022-12-07T16:58:36;5.70;99.90